Terminal Aerodrome Forecast
Issued by NWS

Home | Current Version | Previous Version | Text Only | Print | Product List | Glossary On
Versions: 1 2 3 4 5 6 7 8 9 10 11 12 13 14 15 16 17 18 19 20 21 22 23 24 25 26 27 28 29 30 31 32 33
000
FTUS43 KDLH 282300
TAFHYR
TAF
KHYR 282332Z 2900/2924 19014G24KT P6SM SCT080
     FM290100 17007KT P6SM SCT080
     FM290800 19004KT P6SM BKN080
     FM291100 19005KT 6SM -SHRA BR BKN025
     FM291500 22005KT P6SM VCSH OVC020
     FM292000 24005KT 5SM -TSRA BR OVC015CB=

USA.gov is the U.S. government's official web portal to all federal, state and local government web resources and services.